Time;durP1;ratioP1;P1;durP2;ratioP2;P2;SDS_P1;SDS_P2;PMS_P1;PMS_P2;Temp;Humidity;BMP_temperature;BMP_pressure;BME280_temperature;BME280_humidity;BME280_pressure;Samples;Min_cycle;Max_cycle;Signal;HPM_P1;HPM_P2
2022/09/03 00:00:04;;;;;;;3.83;0.50;;;19.30;75.30;;;;;;5022097;28;20043;-72
2022/09/03 00:02:46;;;;;;;1.17;0.73;;;19.30;75.20;;;;;;5022891;28;20041;-69
2022/09/03 00:05:22;;;;;;;3.45;0.80;;;19.30;75.30;;;;;;5021966;28;20029;-72
2022/09/03 00:08:03;;;;;;;2.67;0.40;;;19.30;75.50;;;;;;5025784;28;20041;-69
2022/09/03 00:10:42;;;;;;;3.10;0.60;;;19.20;75.60;;;;;;5016106;28;20033;-72
2022/09/03 00:13:09;;;;;;;1.67;0.40;;;19.20;75.70;;;;;;5017790;28;20522;-70
2022/09/03 00:15:38;;;;;;;2.63;0.40;;;19.20;75.70;;;;;;5021749;28;20045;-71
2022/09/03 00:18:17;;;;;;;2.50;0.38;;;19.20;75.80;;;;;;5021863;28;20505;-69
2022/09/03 00:20:49;;;;;;;1.25;0.40;;;19.20;75.90;;;;;;5021878;28;20041;-70
2022/09/03 00:23:20;;;;;;;1.88;0.52;;;19.20;75.90;;;;;;5022090;28;20160;-71
2022/09/03 00:25:54;;;;;;;1.35;0.40;;;19.20;76.10;;;;;;5022631;28;20030;-69
2022/09/03 00:28:29;;;;;;;2.95;0.88;;;19.10;76.00;;;;;;5025845;28;20033;-70
2022/09/03 00:31:17;;;;;;;2.95;0.50;;;19.20;76.00;;;;;;5027193;28;20055;-71
2022/09/03 00:33:45;;;;;;;4.05;0.38;;;19.10;76.10;;;;;;5003827;28;20405;-71
2022/09/03 00:36:40;;;;;;;1.95;0.75;;;19.10;76.10;;;;;;5020557;28;20029;-70
2022/09/03 00:39:18;;;;;;;1.75;0.55;;;19.10;76.20;;;;;;5022117;28;20041;-70
2022/09/03 00:41:52;;;;;;;1.42;0.70;;;19.00;76.40;;;;;;5022022;28;20041;-71
2022/09/03 00:44:37;;;;;;;0.65;0.40;;;19.00;76.60;;;;;;5023531;28;20056;-70
2022/09/03 00:47:09;;;;;;;1.67;0.77;;;18.90;76.60;;;;;;5022766;28;20045;-70
2022/09/03 00:49:47;;;;;;;1.75;0.60;;;19.00;76.60;;;;;;5022739;28;20069;-71
2022/09/03 00:52:12;;;;;;;2.55;0.40;;;19.00;76.70;;;;;;5022924;28;20040;-71
2022/09/03 00:55:00;;;;;;;1.20;0.38;;;18.90;76.70;;;;;;5026281;28;20124;-70
2022/09/03 00:57:59;;;;;;;1.75;0.77;;;18.90;76.80;;;;;;5027957;28;20493;-71
2022/09/03 01:00:24;;;;;;;1.35;0.52;;;18.90;76.90;;;;;;5028644;28;20571;-70
2022/09/03 01:03:04;;;;;;;1.58;0.50;;;18.80;77.20;;;;;;5029296;28;20038;-71
2022/09/03 01:05:53;;;;;;;4.68;0.65;;;18.80;77.40;;;;;;5027779;28;20026;-70
2022/09/03 01:08:31;;;;;;;3.90;0.50;;;18.80;77.30;;;;;;5022618;28;20045;-69
2022/09/03 01:11:32;;;;;;;0.65;0.40;;;18.80;77.40;;;;;;5025494;28;20037;-71
2022/09/03 01:14:19;;;;;;;2.03;0.52;;;18.80;77.30;;;;;;4998436;28;20025;-71
2022/09/03 01:16:45;;;;;;;1.02;0.25;;;18.80;77.50;;;;;;5026269;28;20033;-71
2022/09/03 01:19:16;;;;;;;1.73;0.20;;;18.80;77.50;;;;;;5027725;28;20116;-71
2022/09/03 01:22:19;;;;;;;2.70;0.40;;;18.80;77.70;;;;;;5027472;28;20036;-71
2022/09/03 01:25:22;;;;;;;1.52;0.70;;;18.70;77.70;;;;;;5025789;28;20033;-71
2022/09/03 01:28:15;;;;;;;2.67;0.30;;;18.70;77.80;;;;;;5027212;28;20462;-70
2022/09/03 01:30:47;;;;;;;0.57;0.30;;;18.60;77.90;;;;;;5024593;28;20068;-70
2022/09/03 01:33:25;;;;;;;2.03;0.60;;;18.60;78.10;;;;;;5026697;28;20037;-72
2022/09/03 01:36:10;;;;;;;2.65;0.60;;;18.60;78.20;;;;;;5028126;28;20040;-70
2022/09/03 01:39:01;;;;;;;1.05;0.45;;;18.60;78.10;;;;;;5024212;28;20652;-71
2022/09/03 01:44:26;;;;;;;6.00;0.32;;;18.60;78.20;;;;;;5032140;28;20096;-68
2022/09/03 01:47:06;;;;;;;0.98;0.40;;;18.50;78.30;;;;;;5033630;28;20045;-71
2022/09/03 01:49:41;;;;;;;2.22;1.27;;;18.60;78.30;;;;;;5030577;28;20167;-70
2022/09/03 01:52:14;;;;;;;3.40;0.50;;;18.60;78.40;;;;;;5030198;28;20029;-70
2022/09/03 01:54:49;;;;;;;2.65;0.50;;;18.60;78.50;;;;;;5027752;28;20585;-69
2022/09/03 01:57:26;;;;;;;3.45;0.93;;;18.60;78.40;;;;;;5027460;28;20079;-71
2022/09/03 02:00:02;;;;;;;1.40;0.50;;;18.50;78.40;;;;;;5028030;28;20095;-69
2022/09/03 02:02:29;;;;;;;2.35;0.50;;;18.60;78.60;;;;;;5020802;28;20083;-70
2022/09/03 02:05:08;;;;;;;3.58;0.60;;;18.60;78.40;;;;;;5027773;28;20034;-68
2022/09/03 02:07:40;;;;;;;1.30;0.30;;;18.50;78.50;;;;;;5023495;28;20029;-69
2022/09/03 02:10:13;;;;;;;1.20;0.32;;;18.50;78.50;;;;;;5027650;28;20029;-70
2022/09/03 02:12:42;;;;;;;1.25;0.30;;;18.50;78.60;;;;;;5026313;28;20033;-71
2022/09/03 02:15:15;;;;;;;2.15;0.60;;;18.50;78.70;;;;;;5025760;28;20107;-71
2022/09/03 02:17:42;;;;;;;1.35;0.55;;;18.50;78.80;;;;;;5020701;28;20630;-70
2022/09/03 02:20:10;;;;;;;3.80;1.25;;;18.40;78.90;;;;;;5030250;28;20428;-71
2022/09/03 02:22:38;;;;;;;0.95;0.30;;;18.30;79.00;;;;;;5035517;28;20069;-71
2022/09/03 02:25:05;;;;;;;3.80;0.77;;;18.30;79.30;;;;;;5035553;28;20216;-69
2022/09/03 02:27:30;;;;;;;1.05;0.40;;;18.30;79.20;;;;;;5029303;28;20028;-71
2022/09/03 02:29:57;;;;;;;2.10;0.45;;;18.30;79.20;;;;;;5028831;28;20030;-70
2022/09/03 02:32:22;;;;;;;4.35;0.50;;;18.30;79.30;;;;;;5026988;28;20485;-71
2022/09/03 02:34:48;;;;;;;0.68;0.40;;;18.30;79.40;;;;;;5027728;28;20034;-71
2022/09/03 02:37:15;;;;;;;1.77;0.43;;;18.20;79.40;;;;;;5025476;28;20036;-71
2022/09/03 02:39:41;;;;;;;2.45;0.35;;;18.30;79.50;;;;;;5027068;28;20040;-72
2022/09/03 02:42:11;;;;;;;3.72;0.65;;;18.20;79.50;;;;;;5025317;28;20017;-70
2022/09/03 02:44:52;;;;;;;2.92;0.60;;;18.20;79.50;;;;;;5024308;28;20041;-72
2022/09/03 02:47:19;;;;;;;3.40;0.60;;;18.20;79.60;;;;;;5026615;28;20041;-71
2022/09/03 02:49:47;;;;;;;0.70;0.20;;;18.10;79.50;;;;;;5027274;28;20033;-71
2022/09/03 02:52:12;;;;;;;0.88;0.35;;;18.20;79.50;;;;;;5026788;28;20025;-72
2022/09/03 02:54:38;;;;;;;0.93;0.40;;;18.10;79.70;;;;;;5026584;28;20055;-71
2022/09/03 02:57:09;;;;;;;0.98;0.45;;;18.00;79.90;;;;;;5026642;28;20026;-70
2022/09/03 02:59:34;;;;;;;1.20;0.40;;;18.00;80.00;;;;;;5025889;28;20040;-71
2022/09/03 03:02:01;;;;;;;0.60;0.50;;;18.00;80.10;;;;;;5026923;28;20033;-70
2022/09/03 03:04:28;;;;;;;2.58;0.45;;;17.90;80.10;;;;;;5023659;28;20045;-71
2022/09/03 03:06:54;;;;;;;1.35;0.47;;;17.90;80.10;;;;;;5022825;28;20045;-71
2022/09/03 03:09:20;;;;;;;1.65;0.45;;;17.90;80.00;;;;;;5025157;28;20041;-72
2022/09/03 03:11:45;;;;;;;4.13;0.65;;;18.00;80.00;;;;;;5026185;28;20044;-71
2022/09/03 03:14:11;;;;;;;1.48;0.30;;;17.90;80.30;;;;;;5024705;28;20443;-70
2022/09/03 03:16:36;;;;;;;4.43;0.40;;;17.80;80.30;;;;;;5025078;28;20033;-70
2022/09/03 03:19:02;;;;;;;3.17;0.22;;;17.80;80.50;;;;;;5025385;28;20280;-70
2022/09/03 03:21:28;;;;;;;2.90;0.50;;;17.90;80.30;;;;;;5024965;28;20129;-71
2022/09/03 03:23:54;;;;;;;1.08;0.40;;;17.90;81.00;;;;;;5025037;28;20045;-70
2022/09/03 03:26:20;;;;;;;4.88;0.95;;;17.80;80.40;;;;;;5025345;28;20063;-72
2022/09/03 03:28:47;;;;;;;1.60;0.50;;;17.80;80.40;;;;;;5025761;28;20179;-71
2022/09/03 03:31:16;;;;;;;0.93;0.32;;;17.70;80.60;;;;;;5024996;28;20044;-69
2022/09/03 03:33:42;;;;;;;3.25;0.43;;;17.80;80.80;;;;;;5024918;28;20494;-71
2022/09/03 03:36:15;;;;;;;7.43;1.00;;;17.80;80.80;;;;;;5024273;28;20041;-69
2022/09/03 03:38:42;;;;;;;2.05;0.65;;;17.70;81.00;;;;;;5026110;28;20048;-71
2022/09/03 03:41:23;;;;;;;1.42;0.50;;;17.70;81.10;;;;;;5025253;28;20048;-72
2022/09/03 03:43:53;;;;;;;4.15;0.50;;;17.70;81.10;;;;;;5025316;28;20049;-71
2022/09/03 03:46:20;;;;;;;1.38;0.50;;;17.60;81.30;;;;;;5028155;28;20493;-71
2022/09/03 03:48:50;;;;;;;1.27;0.77;;;17.60;81.40;;;;;;5030745;28;20052;-70
2022/09/03 03:51:17;;;;;;;1.85;1.05;;;17.50;81.60;;;;;;5032689;28;20041;-72
2022/09/03 03:53:43;;;;;;;2.42;0.60;;;17.50;81.80;;;;;;5029836;28;20059;-72
2022/09/03 03:56:12;;;;;;;1.60;0.60;;;17.50;81.90;;;;;;5029435;28;20037;-72
2022/09/03 03:58:41;;;;;;;0.63;0.40;;;17.40;82.00;;;;;;5030015;28;20037;-70
2022/09/03 04:01:10;;;;;;;3.92;0.40;;;17.40;82.10;;;;;;5028381;28;20043;-71
2022/09/03 04:03:36;;;;;;;2.47;0.80;;;17.40;82.10;;;;;;5028209;28;20068;-71
2022/09/03 04:06:03;;;;;;;1.90;0.45;;;17.40;82.10;;;;;;5029506;28;20056;-71
2022/09/03 04:08:32;;;;;;;1.58;0.45;;;17.40;82.20;;;;;;5028240;28;20044;-71
2022/09/03 04:11:00;;;;;;;2.08;0.52;;;17.40;82.30;;;;;;5027064;28;20107;-71
2022/09/03 04:13:33;;;;;;;1.58;0.43;;;17.40;82.40;;;;;;5024685;28;20037;-72
2022/09/03 04:16:03;;;;;;;0.75;0.30;;;17.40;83.10;;;;;;5025944;28;20073;-72
2022/09/03 04:18:30;;;;;;;3.03;0.30;;;17.30;82.50;;;;;;5022698;28;20021;-71
2022/09/03 04:21:17;;;;;;;1.65;0.47;;;17.30;82.70;;;;;;5024258;28;20401;-70
2022/09/03 04:23:44;;;;;;;1.27;0.60;;;17.20;82.90;;;;;;5023710;28;20041;-71
2022/09/03 04:26:13;;;;;;;1.88;0.60;;;17.20;83.10;;;;;;5023038;28;20516;-71
2022/09/03 04:28:40;;;;;;;1.48;0.55;;;17.20;83.00;;;;;;5023272;28;20044;-72
2022/09/03 04:31:08;;;;;;;2.58;0.52;;;17.20;83.20;;;;;;5024783;28;20723;-71
2022/09/03 04:33:36;;;;;;;2.33;0.60;;;17.20;83.10;;;;;;5023023;28;20418;-71
2022/09/03 04:36:15;;;;;;;0.98;0.30;;;17.20;83.20;;;;;;5023242;28;20087;-68
2022/09/03 04:38:43;;;;;;;1.42;0.30;;;17.20;83.20;;;;;;5021550;28;20061;-71
2022/09/03 04:41:14;;;;;;;4.97;0.55;;;17.30;83.20;;;;;;5022709;28;20135;-71
2022/09/03 04:43:43;;;;;;;0.73;0.50;;;17.20;83.30;;;;;;5022397;28;20048;-71
2022/09/03 04:46:10;;;;;;;2.10;0.30;;;17.20;83.40;;;;;;5023149;28;20040;-70
2022/09/03 04:48:37;;;;;;;13.80;1.00;;;17.20;83.40;;;;;;5026974;28;20110;-71
2022/09/03 04:51:12;;;;;;;2.97;0.50;;;17.20;83.40;;;;;;5028308;28;20030;-71
2022/09/03 04:53:40;;;;;;;1.38;0.40;;;17.20;83.30;;;;;;5026462;28;20064;-72
2022/09/03 04:56:27;;;;;;;1.55;0.38;;;17.30;83.20;;;;;;5028180;28;20036;-72
2022/09/03 04:59:00;;;;;;;0.82;0.40;;;17.20;83.30;;;;;;5023265;28;20041;-71
2022/09/03 05:01:28;;;;;;;0.68;0.55;;;17.20;83.50;;;;;;5026786;28;20034;-70
2022/09/03 05:03:56;;;;;;;1.23;0.40;;;17.20;83.40;;;;;;5026067;28;20033;-71
2022/09/03 05:06:24;;;;;;;2.95;0.70;;;17.20;83.50;;;;;;5026674;28;20045;-71
2022/09/03 05:08:50;;;;;;;3.97;0.65;;;17.20;83.50;;;;;;5031854;28;20094;-70
2022/09/03 05:11:17;;;;;;;1.05;0.40;;;17.20;83.60;;;;;;5028731;28;20233;-72
2022/09/03 05:13:48;;;;;;;2.63;0.60;;;17.10;83.70;;;;;;5032324;28;20026;-72
2022/09/03 05:16:14;;;;;;;3.65;0.65;;;17.10;83.80;;;;;;5027915;28;20052;-71
2022/09/03 05:18:41;;;;;;;4.32;0.70;;;17.10;83.70;;;;;;5028884;28;20033;-70
2022/09/03 05:21:11;;;;;;;3.42;0.63;;;17.10;83.70;;;;;;5028418;28;20056;-70
2022/09/03 05:23:39;;;;;;;4.03;0.50;;;17.10;83.90;;;;;;5026993;28;20151;-70
2022/09/03 05:26:08;;;;;;;1.77;0.65;;;17.10;83.80;;;;;;5028052;28;20120;-71
2022/09/03 05:28:35;;;;;;;3.20;0.40;;;17.10;83.80;;;;;;5026021;28;20099;-71
2022/09/03 05:31:07;;;;;;;1.25;0.50;;;17.10;83.90;;;;;;5026091;28;20053;-71
2022/09/03 05:33:34;;;;;;;0.98;0.35;;;17.10;83.90;;;;;;5026557;28;20509;-72
2022/09/03 05:36:02;;;;;;;3.13;0.52;;;17.00;84.00;;;;;;5026953;28;20126;-72
2022/09/03 05:38:28;;;;;;;1.05;0.40;;;17.00;84.10;;;;;;5027071;28;20037;-71
2022/09/03 05:41:01;;;;;;;0.68;0.43;;;17.10;84.10;;;;;;5026653;28;20053;-70
2022/09/03 05:43:27;;;;;;;4.18;0.40;;;17.10;84.00;;;;;;5026106;28;20037;-72
2022/09/03 05:46:16;;;;;;;0.75;0.40;;;17.10;84.00;;;;;;5030456;28;20030;-72
2022/09/03 05:48:42;;;;;;;0.90;0.30;;;17.10;84.20;;;;;;5036217;28;20561;-71
2022/09/03 05:51:16;;;;;;;4.70;0.70;;;17.10;84.30;;;;;;5034922;28;20021;-70
2022/09/03 05:53:44;;;;;;;1.65;0.65;;;17.00;84.40;;;;;;5035234;28;20041;-71
2022/09/03 05:56:18;;;;;;;2.78;0.40;;;17.10;84.30;;;;;;5031116;28;20029;-70
2022/09/03 05:58:50;;;;;;;2.33;0.50;;;17.20;84.10;;;;;;5028273;28;20029;-72
2022/09/03 06:01:21;;;;;;;2.05;0.30;;;17.20;83.80;;;;;;5027326;28;20041;-69
2022/09/03 06:03:58;;;;;;;4.38;0.40;;;17.20;83.80;;;;;;5025972;28;20045;-72
2022/09/03 06:06:25;;;;;;;4.63;0.82;;;17.30;84.00;;;;;;5024785;28;20045;-69
2022/09/03 06:08:53;;;;;;;1.10;0.38;;;17.30;84.00;;;;;;5028250;28;20506;-71
2022/09/03 06:11:20;;;;;;;2.97;0.30;;;17.40;83.60;;;;;;5024900;28;20116;-71
2022/09/03 06:13:46;;;;;;;1.50;0.30;;;17.60;83.00;;;;;;5027345;28;20100;-72
2022/09/03 06:16:12;;;;;;;4.78;0.68;;;17.90;82.60;;;;;;5024845;28;20052;-71
2022/09/03 06:18:37;;;;;;;1.35;0.68;;;18.10;82.00;;;;;;5018753;28;20501;-71
2022/09/03 06:21:05;;;;;;;5.25;0.82;;;18.30;81.50;;;;;;5033555;28;20029;-71
2022/09/03 06:23:32;;;;;;;6.25;0.80;;;18.40;81.50;;;;;;5025559;28;20044;-69
2022/09/03 06:26:10;;;;;;;1.30;0.30;;;18.50;81.80;;;;;;5026094;28;20048;-70
2022/09/03 06:28:38;;;;;;;2.00;0.70;;;18.50;81.00;;;;;;5024991;28;20413;-71
2022/09/03 06:31:06;;;;;;;1.02;0.30;;;18.60;81.00;;;;;;5031747;28;20029;-72
2022/09/03 06:33:34;;;;;;;0.45;0.32;;;18.90;80.60;;;;;;5034487;28;20036;-72
2022/09/03 06:36:01;;;;;;;1.67;0.60;;;19.20;79.70;;;;;;5033090;28;20676;-70
2022/09/03 06:38:30;;;;;;;4.05;0.60;;;19.40;79.40;;;;;;5028326;28;20065;-70
2022/09/03 06:41:00;;;;;;;2.22;0.38;;;19.60;78.70;;;;;;5025384;28;20052;-70
2022/09/03 06:43:27;;;;;;;3.22;0.52;;;19.70;78.10;;;;;;5025232;28;20046;-68
2022/09/03 06:46:01;;;;;;;1.52;0.40;;;19.60;77.90;;;;;;5025462;28;20083;-72
2022/09/03 06:48:28;;;;;;;4.00;0.40;;;19.70;78.10;;;;;;5025642;28;20038;-69
2022/09/03 06:51:00;;;;;;;6.72;0.88;;;19.80;77.90;;;;;;5026398;28;20035;-72
2022/09/03 06:53:27;;;;;;;1.10;0.35;;;20.00;77.20;;;;;;5025388;28;20033;-70
2022/09/03 06:55:58;;;;;;;1.38;0.30;;;20.20;77.70;;;;;;5026141;28;20044;-72
2022/09/03 06:58:24;;;;;;;;;;;20.30;76.90;;;;;;5018007;28;20037;-72
2022/09/03 07:00:51;;;;;;;0.88;0.28;;;20.20;77.10;;;;;;5021858;28;19978;-71
2022/09/03 07:03:17;;;;;;;1.55;0.50;;;20.10;77.40;;;;;;5024110;28;20152;-71
2022/09/03 07:05:43;;;;;;;6.68;1.02;;;20.00;78.20;;;;;;5026275;28;20545;-72
2022/09/03 07:08:10;;;;;;;2.00;0.45;;;19.80;78.00;;;;;;5024967;28;20031;-71
2022/09/03 07:10:36;;;;;;;3.00;0.40;;;19.90;78.20;;;;;;5024524;28;20029;-70
2022/09/03 07:13:02;;;;;;;1.42;0.40;;;19.90;78.50;;;;;;5025296;28;20037;-71
2022/09/03 07:15:28;;;;;;;1.35;0.50;;;19.80;78.50;;;;;;5024913;28;20484;-70
2022/09/03 07:17:54;;;;;;;3.10;0.68;;;19.80;78.70;;;;;;5025993;28;20040;-71
2022/09/03 07:20:20;;;;;;;3.67;0.43;;;19.80;78.80;;;;;;5024984;28;20160;-71
2022/09/03 07:22:45;;;;;;;1.25;0.50;;;19.80;78.80;;;;;;5025566;28;20132;-71
2022/09/03 07:25:11;;;;;;;1.98;0.50;;;19.80;79.30;;;;;;5025471;28;20057;-71
2022/09/03 07:27:36;;;;;;;2.33;0.25;;;19.80;78.70;;;;;;5026641;28;20033;-72
2022/09/03 07:30:02;;;;;;;4.35;0.57;;;19.90;79.10;;;;;;5026993;28;20492;-69
2022/09/03 07:32:28;;;;;;;0.98;0.35;;;19.90;78.70;;;;;;5031993;28;20460;-70
2022/09/03 07:34:53;;;;;;;0.70;0.30;;;19.90;78.50;;;;;;5032643;28;20045;-71
2022/09/03 07:37:19;;;;;;;0.95;0.30;;;20.00;78.30;;;;;;5030735;28;20547;-71
2022/09/03 07:39:45;;;;;;;2.00;0.47;;;20.00;78.60;;;;;;5031977;28;20121;-71
2022/09/03 07:42:11;;;;;;;0.88;0.30;;;20.10;78.50;;;;;;5030193;28;20052;-71
2022/09/03 07:44:37;;;;;;;8.57;0.65;;;20.10;78.20;;;;;;5028396;28;20422;-72
2022/09/03 07:47:02;;;;;;;3.20;0.40;;;20.20;78.00;;;;;;5026684;28;20520;-72
2022/09/03 07:49:28;;;;;;;3.08;0.40;;;20.20;77.90;;;;;;5031677;28;20041;-70
2022/09/03 07:51:53;;;;;;;2.70;0.40;;;20.20;78.10;;;;;;5033436;28;20049;-72
2022/09/03 07:54:20;;;;;;;5.13;0.40;;;20.30;79.10;;;;;;5029499;28;20041;-72
2022/09/03 07:56:46;;;;;;;2.70;0.43;;;20.30;77.60;;;;;;5033027;28;20037;-71
2022/09/03 07:59:12;;;;;;;1.75;0.40;;;20.40;77.80;;;;;;5030504;28;20033;-70
2022/09/03 08:01:38;;;;;;;1.30;0.40;;;20.50;78.00;;;;;;5027812;28;20040;-72
2022/09/03 08:04:05;;;;;;;2.75;0.32;;;20.50;77.70;;;;;;5026872;28;20053;-71
2022/09/03 08:06:32;;;;;;;3.80;0.52;;;20.60;78.20;;;;;;5026296;28;20076;-71
2022/09/03 08:09:01;;;;;;;3.00;0.50;;;20.70;77.40;;;;;;5023999;28;20378;-71
2022/09/03 08:11:28;;;;;;;4.72;0.88;;;20.80;77.30;;;;;;5022241;28;20056;-71
2022/09/03 08:14:02;;;;;;;1.50;0.50;;;20.80;77.20;;;;;;5022139;28;20120;-71
2022/09/03 08:16:29;;;;;;;6.70;0.60;;;20.90;77.10;;;;;;5023983;28;20816;-71
2022/09/03 08:18:55;;;;;;;1.67;0.30;;;21.00;77.00;;;;;;5024350;28;20053;-72
2022/09/03 08:21:21;;;;;;;3.28;0.40;;;21.10;76.70;;;;;;5011592;28;20117;-71
2022/09/03 08:23:49;;;;;;;2.95;0.47;;;21.10;76.60;;;;;;5021304;28;20132;-70
2022/09/03 08:26:16;;;;;;;1.08;0.50;;;21.10;76.70;;;;;;5025365;28;20038;-70
2022/09/03 08:28:42;;;;;;;6.88;0.38;;;21.10;76.90;;;;;;5026599;28;20040;-71
2022/09/03 08:31:13;;;;;;;2.88;0.50;;;21.20;77.40;;;;;;5022011;28;20041;-71
2022/09/03 08:33:41;;;;;;;0.68;0.20;;;21.30;77.90;;;;;;5018132;28;20048;-71
2022/09/03 08:36:12;;;;;;;2.33;0.30;;;21.50;76.90;;;;;;5021525;28;20438;-71
2022/09/03 08:38:42;;;;;;;8.77;0.50;;;21.60;76.10;;;;;;5021345;28;20057;-70
2022/09/03 08:41:16;;;;;;;2.55;0.40;;;21.70;75.50;;;;;;5020149;28;20711;-70
2022/09/03 08:43:54;;;;;;;0.68;0.20;;;21.80;75.80;;;;;;5017663;28;20522;-70
2022/09/03 08:46:24;;;;;;;1.20;0.47;;;21.80;75.20;;;;;;5023780;28;20696;-70
2022/09/03 08:48:51;;;;;;;6.45;0.70;;;21.90;75.90;;;;;;5024408;28;20037;-70
2022/09/03 08:51:22;;;;;;;0.77;0.20;;;21.80;75.80;;;;;;5018581;28;20029;-69
2022/09/03 08:53:54;;;;;;;3.40;0.38;;;21.80;76.30;;;;;;5019221;28;20042;-70
2022/09/03 08:56:32;;;;;;;3.33;0.55;;;22.00;76.20;;;;;;5020862;28;20502;-70
2022/09/03 08:59:00;;;;;;;1.67;0.30;;;22.10;75.20;;;;;;5023398;28;20033;-70
2022/09/03 09:01:42;;;;;;;3.15;0.43;;;22.20;74.70;;;;;;5020975;28;20502;-69
2022/09/03 09:04:11;;;;;;;4.13;0.93;;;22.30;75.10;;;;;;5024327;28;20033;-70
2022/09/03 09:06:54;;;;;;;4.32;0.68;;;22.30;75.30;;;;;;5022858;28;20041;-69
2022/09/03 09:09:26;;;;;;;3.88;0.40;;;22.50;75.70;;;;;;5018484;28;20587;-70
2022/09/03 09:12:40;;;;;;;4.90;0.55;;;22.50;75.70;;;;;;5024576;28;20037;-70
2022/09/03 09:15:18;;;;;;;3.33;0.30;;;22.50;75.10;;;;;;4962709;28;20126;-70
2022/09/03 09:18:39;;;;;;;2.50;0.50;;;22.70;74.20;;;;;;5023400;28;20042;-70
2022/09/03 09:21:14;;;;;;;1.10;0.35;;;22.80;74.20;;;;;;4931695;28;20050;-71
2022/09/03 09:23:46;;;;;;;1.15;0.20;;;22.80;73.40;;;;;;5021362;28;20041;-71
2022/09/03 09:26:18;;;;;;;2.83;0.40;;;22.90;73.90;;;;;;5020185;28;20033;-70
2022/09/03 09:29:06;;;;;;;2.25;0.30;;;23.00;74.00;;;;;;5025771;28;20556;-68
2022/09/03 09:31:32;;;;;;;1.73;0.50;;;23.00;73.90;;;;;;5022138;28;20042;-68
2022/09/03 09:34:06;;;;;;;0.63;0.20;;;23.10;74.50;;;;;;5017972;28;20034;-70
2022/09/03 09:36:43;;;;;;;1.75;0.38;;;23.20;74.40;;;;;;5020185;28;20042;-70
2022/09/03 09:39:14;;;;;;;1.45;0.30;;;23.20;74.00;;;;;;5023138;28;20462;-70
2022/09/03 09:41:41;;;;;;;1.05;0.50;;;23.30;74.10;;;;;;5027534;28;20053;-71
2022/09/03 09:44:06;;;;;;;6.25;0.52;;;23.40;74.30;;;;;;5024801;28;20088;-71
2022/09/03 09:46:38;;;;;;;2.80;0.55;;;23.50;73.40;;;;;;5024648;28;20041;-70
2022/09/03 09:49:23;;;;;;;1.52;0.28;;;23.60;71.90;;;;;;5022835;28;20072;-68
2022/09/03 09:51:59;;;;;;;2.20;0.70;;;23.60;72.00;;;;;;5025011;28;20034;-69
2022/09/03 09:54:26;;;;;;;1.00;0.50;;;23.70;72.40;;;;;;5025608;28;20036;-70
2022/09/03 09:57:07;;;;;;;4.07;0.20;;;23.90;72.00;;;;;;5021187;28;20034;-69
2022/09/03 09:59:34;;;;;;;1.30;0.25;;;23.90;72.00;;;;;;5019257;28;20049;-70
2022/09/03 10:02:25;;;;;;;1.95;0.68;;;24.10;70.50;;;;;;5024775;28;20415;-68
2022/09/03 10:04:51;;;;;;;3.30;0.40;;;24.10;70.40;;;;;;5027105;28;20045;-69
2022/09/03 10:07:28;;;;;;;1.02;0.40;;;24.10;71.20;;;;;;5026916;28;20501;-70
2022/09/03 10:09:59;;;;;;;1.02;0.20;;;24.20;71.90;;;;;;5026150;28;20038;-71
2022/09/03 10:12:30;;;;;;;1.27;0.32;;;24.20;70.90;;;;;;5024933;28;20076;-68
2022/09/03 10:15:13;;;;;;;1.27;0.20;;;24.30;70.90;;;;;;5025539;28;20505;-70
2022/09/03 10:17:56;;;;;;;1.25;0.30;;;24.40;71.40;;;;;;5023816;28;20030;-69
2022/09/03 10:20:36;;;;;;;2.00;0.68;;;24.50;70.40;;;;;;5025445;28;20041;-70
2022/09/03 10:23:10;;;;;;;0.80;0.25;;;24.70;69.70;;;;;;5022297;28;20536;-70
2022/09/03 10:25:59;;;;;;;2.55;0.30;;;24.60;70.20;;;;;;5023543;28;20481;-67
2022/09/03 10:28:27;;;;;;;0.38;0.20;;;24.80;69.30;;;;;;5024514;28;20052;-69
2022/09/03 10:31:05;;;;;;;3.10;0.30;;;24.80;70.20;;;;;;5024088;28;20060;-71
2022/09/03 10:33:41;;;;;;;2.08;0.38;;;24.90;70.80;;;;;;5020276;28;20045;-66
2022/09/03 10:36:33;;;;;;;3.35;0.38;;;25.00;69.20;;;;;;5023688;28;20075;-67
2022/09/03 10:39:20;;;;;;;1.25;0.43;;;25.10;69.40;;;;;;5019852;28;20044;-70
2022/09/03 10:42:20;;;;;;;3.97;0.55;;;25.10;70.40;;;;;;5022468;28;20045;-67
2022/09/03 10:45:05;;;;;;;1.25;0.40;;;25.20;70.40;;;;;;5023039;28;20064;-67
2022/09/03 10:48:15;;;;;;;3.83;0.70;;;25.20;70.00;;;;;;5021871;28;20133;-66
2022/09/03 10:50:45;;;;;;;2.92;0.35;;;25.10;70.10;;;;;;5023682;28;20046;-67
2022/09/03 10:53:16;;;;;;;2.17;0.40;;;25.10;71.20;;;;;;5025119;28;20037;-70
2022/09/03 10:56:02;;;;;;;1.60;0.30;;;25.00;71.90;;;;;;5026035;28;20044;-70
2022/09/03 10:58:47;;;;;;;12.02;0.45;;;25.00;70.50;;;;;;5021068;28;20030;-70
2022/09/03 11:01:26;;;;;;;2.35;0.43;;;24.90;69.80;;;;;;5016483;28;20038;-70
2022/09/03 11:04:13;;;;;;;3.10;0.47;;;24.90;71.20;;;;;;5024481;28;20049;-68
2022/09/03 11:06:49;;;;;;;3.85;0.40;;;24.90;70.30;;;;;;5022045;28;20041;-67
2022/09/03 11:09:27;;;;;;;1.20;0.25;;;24.90;73.00;;;;;;5023012;28;20034;-69
2022/09/03 11:11:58;;;;;;;1.92;0.30;;;25.00;69.60;;;;;;5023137;28;20045;-69
2022/09/03 11:14:32;;;;;;;0.60;0.38;;;25.00;70.00;;;;;;5022957;28;20030;-67
2022/09/03 11:17:12;;;;;;;3.20;0.35;;;25.00;69.80;;;;;;5019804;28;20033;-70
2022/09/03 11:19:55;;;;;;;0.98;0.20;;;24.90;70.50;;;;;;5021401;28;20506;-70
2022/09/03 11:22:22;;;;;;;0.82;0.28;;;25.00;69.30;;;;;;5022755;28;20049;-68
2022/09/03 11:24:56;;;;;;;0.80;0.50;;;25.00;70.30;;;;;;5024002;28;20038;-71
2022/09/03 11:27:30;;;;;;;1.55;0.47;;;25.00;70.20;;;;;;5023211;28;20530;-72
2022/09/03 11:30:09;;;;;;;1.38;0.30;;;25.00;70.60;;;;;;5021142;28;20034;-71
2022/09/03 11:32:58;;;;;;;4.22;0.50;;;25.00;69.60;;;;;;5018297;28;20900;-72
2022/09/03 11:35:31;;;;;;;1.27;0.40;;;25.10;70.40;;;;;;5011619;28;20035;-72
2022/09/03 11:38:04;;;;;;;0.52;0.35;;;25.10;70.70;;;;;;5019365;28;20033;-69
2022/09/03 11:40:34;;;;;;;1.40;0.40;;;25.10;69.90;;;;;;5017907;28;20029;-70
2022/09/03 11:43:31;;;;;;;0.60;0.20;;;25.10;69.70;;;;;;5013991;28;20556;-68
2022/09/03 11:46:11;;;;;;;4.72;0.60;;;25.20;69.40;;;;;;5020971;28;20087;-66
2022/09/03 11:48:42;;;;;;;0.45;0.17;;;25.20;69.20;;;;;;5019375;28;20049;-71
2022/09/03 11:51:40;;;;;;;5.53;0.30;;;25.20;69.30;;;;;;5017770;28;20548;-71
2022/09/03 11:54:12;;;;;;;1.27;0.32;;;25.20;70.90;;;;;;5000675;28;20030;-70
2022/09/03 11:56:39;;;;;;;3.15;0.38;;;25.10;70.60;;;;;;5018287;28;20029;-72
2022/09/03 11:59:25;;;;;;;0.73;0.22;;;25.10;70.70;;;;;;5009325;28;20484;-72
2022/09/03 12:02:05;;;;;;;3.03;0.20;;;25.10;71.00;;;;;;5015616;28;20034;-71
2022/09/03 12:04:41;;;;;;;0.65;0.30;;;25.10;70.60;;;;;;5019253;28;20078;-70
2022/09/03 12:07:13;;;;;;;1.13;0.30;;;25.10;69.70;;;;;;5017254;28;20088;-69
2022/09/03 12:10:00;;;;;;;2.35;0.50;;;25.00;69.60;;;;;;5018978;28;20079;-70
2022/09/03 12:13:00;;;;;;;2.05;0.60;;;25.10;69.80;;;;;;5018770;28;20067;-70
2022/09/03 12:16:00;;;;;;;5.45;0.63;;;25.00;70.40;;;;;;5013702;28;20045;-70
2022/09/03 12:18:31;;;;;;;0.80;0.47;;;25.00;70.10;;;;;;5019818;28;20045;-72
2022/09/03 12:20:58;;;;;;;2.53;0.40;;;25.00;70.30;;;;;;5020417;28;20793;-71
2022/09/03 12:23:38;;;;;;;1.05;0.30;;;25.10;70.00;;;;;;5023239;28;20062;-71
2022/09/03 12:26:07;;;;;;;4.57;0.60;;;25.00;69.50;;;;;;5021296;28;20045;-72
2022/09/03 12:28:37;;;;;;;2.08;0.43;;;25.00;70.60;;;;;;5023040;28;20028;-71
2022/09/03 12:31:16;;;;;;;2.50;0.40;;;25.10;70.00;;;;;;5019756;28;20100;-70
2022/09/03 12:33:41;;;;;;;2.03;0.47;;;25.00;70.50;;;;;;5022769;28;20029;-69
2022/09/03 12:36:08;;;;;;;1.45;0.40;;;25.10;70.50;;;;;;5024247;28;20030;-69
2022/09/03 12:38:34;;;;;;;1.27;0.30;;;25.20;70.00;;;;;;5023407;28;20390;-72
2022/09/03 12:41:00;;;;;;;0.85;0.38;;;25.20;71.00;;;;;;5021996;28;20034;-70
2022/09/03 12:43:28;;;;;;;0.95;0.20;;;25.20;70.60;;;;;;5020080;28;20046;-70
2022/09/03 12:45:53;;;;;;;2.08;0.52;;;25.10;70.00;;;;;;5023446;28;20037;-70
2022/09/03 12:48:20;;;;;;;12.82;0.45;;;25.10;70.30;;;;;;5019228;28;20080;-69
2022/09/03 12:50:48;;;;;;;2.15;0.60;;;25.10;70.90;;;;;;5023374;28;20053;-69
2022/09/03 12:53:21;;;;;;;0.90;0.20;;;25.20;69.50;;;;;;5022487;28;20521;-69
2022/09/03 12:55:53;;;;;;;3.53;0.85;;;25.20;69.40;;;;;;5021466;28;20046;-69
2022/09/03 12:58:23;;;;;;;3.78;0.47;;;25.20;69.20;;;;;;5023027;28;20848;-68
2022/09/03 13:01:04;;;;;;;4.57;0.45;;;25.20;69.40;;;;;;5021884;28;20041;-68
2022/09/03 13:03:43;;;;;;;1.10;0.30;;;25.10;69.90;;;;;;5018721;28;20502;-68
2022/09/03 13:06:12;;;;;;;2.38;0.40;;;25.20;69.20;;;;;;5024335;28;20133;-70
2022/09/03 13:08:47;;;;;;;2.83;0.35;;;25.10;70.00;;;;;;5024496;28;20505;-70
2022/09/03 13:11:17;;;;;;;4.68;0.90;;;25.10;70.00;;;;;;5027819;28;20042;-68
2022/09/03 13:13:59;;;;;;;0.73;0.30;;;25.10;69.60;;;;;;5025275;28;20140;-69
2022/09/03 13:16:50;;;;;;;2.90;0.45;;;25.10;70.50;;;;;;5023723;28;20045;-69
2022/09/03 13:19:37;;;;;;;2.90;0.38;;;25.10;70.70;;;;;;5025756;28;20030;-70